Time;durP1;ratioP1;P1;durP2;ratioP2;P2;SDS_P1;SDS_P2;PMS_P1;PMS_P2;Temp;Humidity;BMP_temperature;BMP_pressure;BME280_temperature;BME280_humidity;BME280_pressure;Samples;Min_cycle;Max_cycle;Signal;HPM_P1;HPM_P2
2023/07/01 00:01:32;;;;;;;;;;;;;;;17.30;77.21;100740.47;5095542;28;20041;-71
2023/07/01 00:03:58;;;;;;;;;;;;;;;17.32;76.51;100733.00;5080087;28;19998;-73
2023/07/01 00:06:23;;;;;;;;;;;;;;;17.34;76.06;100733.69;5099951;28;19923;-72
2023/07/01 00:08:48;;;;;;;;;;;;;;;17.40;75.78;100729.44;5079589;28;20587;-72
2023/07/01 00:11:14;;;;;;;;;;;;;;;17.36;75.47;100725.38;5081820;28;20258;-71
2023/07/01 00:13:39;;;;;;;;;;;;;;;17.35;76.37;100721.78;5101937;28;19924;-71
2023/07/01 00:16:04;;;;;;;;;;;;;;;17.29;78.38;100721.63;5081877;28;19920;-71
2023/07/01 00:18:30;;;;;;;;;;;;;;;17.37;76.69;100713.50;5080539;28;19963;-71
2023/07/01 00:20:55;;;;;;;;;;;;;;;17.45;74.80;100716.22;5079717;28;19981;-71
2023/07/01 00:23:20;;;;;;;;;;;;;;;17.34;74.91;100705.69;5063455;28;20285;-72
2023/07/01 00:25:46;;;;;;;;;;;;;;;17.36;76.67;100700.94;5098049;28;19931;-71
2023/07/01 00:28:11;;;;;;;;;;;;;;;17.34;74.92;100698.41;5102260;28;19992;-72
2023/07/01 00:30:36;;;;;;;;;;;;;;;17.34;76.79;100695.69;5066033;28;19924;-71
2023/07/01 00:33:02;;;;;;;;;;;;;;;17.30;76.85;100699.75;5087642;28;19924;-71
2023/07/01 00:35:28;;;;;;;;;;;;;;;17.35;77.18;100689.22;5083274;28;19937;-71
2023/07/01 00:37:53;;;;;;;;;;;;;;;17.32;77.44;100681.44;5088848;28;19926;-73
2023/07/01 00:40:18;;;;;;;;;;;;;;;17.28;78.66;100680.09;5097843;28;19923;-72
2023/07/01 00:42:44;;;;;;;;;;;;;;;17.24;79.46;100673.28;5076780;28;19924;-73
2023/07/01 00:45:09;;;;;;;;;;;;;;;17.22;80.18;100665.31;5072312;28;19997;-71
2023/07/01 00:47:35;;;;;;;;;;;;;;;17.24;80.12;100670.56;5095761;28;20205;-71
2023/07/01 00:50:00;;;;;;;;;;;;;;;17.30;77.22;100671.75;5060432;28;19959;-73
2023/07/01 00:52:25;;;;;;;;;;;;;;;17.33;77.87;100666.88;5073915;28;19975;-72
2023/07/01 00:54:50;;;;;;;;;;;;;;;17.37;77.51;100665.47;5073958;28;20050;-73
2023/07/01 00:57:15;;;;;;;;;;;;;;;17.33;77.99;100660.56;5087635;28;19946;-72
2023/07/01 00:59:41;;;;;;;;;;;;;;;17.27;78.49;100658.53;5088592;28;20276;-73
2023/07/01 01:02:08;;;;;;;;;;;;;;;17.36;78.25;100658.38;5085602;28;20368;-73
2023/07/01 01:04:44;;;;;;;;;;;;;;;17.29;78.48;100653.78;5068567;28;21949;-76
2023/07/01 01:07:12;;;;;;;;;;;;;;;17.29;79.06;100657.38;5069937;28;19934;-72
2023/07/01 01:09:40;;;;;;;;;;;;;;;17.23;80.71;100649.88;5069046;28;19981;-73
2023/07/01 01:12:05;;;;;;;;;;;;;;;17.21;83.04;100644.66;5067715;28;19915;-74
2023/07/01 01:14:33;;;;;;;;;;;;;;;17.20;82.14;100637.53;5070859;28;19927;-72
2023/07/01 01:16:59;;;;;;;;;;;;;;;17.12;82.87;100642.94;5058713;28;19932;-75
2023/07/01 01:19:28;;;;;;;;;;;;;;;17.20;82.72;100637.53;5071803;28;19924;-73
2023/07/01 01:22:05;;;;;;;;;;;;;;;17.19;83.73;100626.81;5067237;28;19920;-73
2023/07/01 01:24:30;;;;;;;;;;;;;;;17.18;84.13;100634.13;5055851;28;20358;-72
2023/07/01 01:26:56;;;;;;;;;;;;;;;17.32;85.35;100627.19;5070604;28;19924;-73
2023/07/01 01:29:22;;;;;;;;;;;;;;;17.39;84.18;100619.19;5070980;28;19946;-72
2023/07/01 01:31:47;;;;;;;;;;;;;;;17.38;84.60;100622.94;5084606;28;20374;-73
2023/07/01 01:34:12;;;;;;;;;;;;;;;17.42;84.47;100613.44;5093397;28;20374;-73
2023/07/01 01:36:39;;;;;;;;;;;;;;;17.45;85.39;100618.53;5089215;28;19930;-73
2023/07/01 01:39:05;;;;;;;;;;;;;;;17.47;84.84;100611.06;5065835;28;19919;-73
2023/07/01 01:41:41;;;;;;;;;;;;;;;17.53;84.20;100596.78;5084385;28;20375;-73
2023/07/01 01:44:10;;;;;;;;;;;;;;;17.43;85.45;100603.41;5068245;28;19928;-74
2023/07/01 01:46:35;;;;;;;;;;;;;;;17.49;84.90;100595.44;5096928;28;19928;-73
2023/07/01 01:49:03;;;;;;;;;;;;;;;17.48;84.82;100590.19;5073085;28;19927;-72
2023/07/01 01:51:29;;;;;;;;;;;;;;;17.45;85.16;100590.53;5080948;28;19924;-75
2023/07/01 01:53:54;;;;;;;;;;;;;;;17.39;86.27;100590.19;5054885;28;19938;-73
2023/07/01 01:56:19;;;;;;;;;;;;;;;17.44;87.21;100580.69;5068761;28;19932;-73
2023/07/01 01:58:47;;;;;;;;;;;;;;;17.38;88.32;100577.63;5065756;28;20546;-72
2023/07/01 02:01:12;;;;;;;;;;;;;;;17.39;89.22;100571.19;5068121;28;19935;-72
2023/07/01 02:03:37;;;;;;;;;;;;;;;17.35;90.12;100579.84;5089356;28;19962;-74
2023/07/01 02:06:03;;;;;;;;;;;;;;;17.42;89.92;100564.59;5102686;28;20011;-73
2023/07/01 02:08:28;;;;;;;;;;;;;;;17.43;92.23;100565.44;5085886;28;19922;-73
2023/07/01 02:10:53;;;;;;;;;;;;;;;17.35;93.11;100569.00;5083158;28;19919;-72
2023/07/01 02:13:18;;;;;;;;;;;;;;;17.35;92.31;100561.69;5078613;28;20359;-72
2023/07/01 02:15:44;;;;;;;;;;;;;;;17.36;94.43;100563.38;5096310;28;19915;-72
2023/07/01 02:18:09;;;;;;;;;;;;;;;17.34;95.38;100562.75;5093934;28;19932;-73
2023/07/01 02:20:34;;;;;;;;;;;;;;;17.37;96.22;100562.38;5077818;28;20057;-73
2023/07/01 02:23:00;;;;;;;;;;;;;;;17.40;96.99;100553.06;5080453;28;19928;-74
2023/07/01 02:25:25;;;;;;;;;;;;;;;17.32;99.15;100553.91;5066323;28;20042;-72
2023/07/01 02:27:50;;;;;;;;;;;;;;;17.34;98.28;100556.44;5067882;28;20376;-75
2023/07/01 02:30:15;;;;;;;;;;;;;;;17.36;99.94;100549.00;5077416;28;19931;-73
2023/07/01 02:32:41;;;;;;;;;;;;;;;17.31;100.00;100546.81;5095875;28;19964;-72
2023/07/01 02:35:06;;;;;;;;;;;;;;;17.26;100.00;100542.88;5096594;28;19927;-74
2023/07/01 02:37:31;;;;;;;;;;;;;;;17.24;100.00;100535.75;5096502;28;20020;-72
2023/07/01 02:39:56;;;;;;;;;;;;;;;17.30;100.00;100538.81;5076668;28;19923;-72
2023/07/01 02:42:22;;;;;;;;;;;;;;;17.20;100.00;100557.97;5097114;28;19923;-71
2023/07/01 02:44:47;;;;;;;;;;;;;;;17.13;100.00;100540.69;5081302;28;19923;-72
2023/07/01 02:47:13;;;;;;;;;;;;;;;17.08;100.00;100541.22;5078043;28;19981;-73
2023/07/01 02:49:40;;;;;;;;;;;;;;;17.07;100.00;100536.78;5080788;28;20003;-74
2023/07/01 02:52:06;;;;;;;;;;;;;;;16.98;100.00;100548.66;5079371;28;19955;-70
2023/07/01 02:54:31;;;;;;;;;;;;;;;16.98;100.00;100546.81;5057440;28;19967;-73
2023/07/01 02:56:56;;;;;;;;;;;;;;;17.01;100.00;100549.19;5060924;28;19923;-69
2023/07/01 02:59:22;;;;;;;;;;;;;;;16.88;100.00;100549.66;5077130;28;19958;-74
2023/07/01 03:01:47;;;;;;;;;;;;;;;16.85;100.00;100538.28;5078247;28;20175;-73
2023/07/01 03:04:13;;;;;;;;;;;;;;;16.77;100.00;100537.28;5070357;28;19919;-72
2023/07/01 03:06:38;;;;;;;;;;;;;;;16.69;100.00;100528.25;5078559;28;19924;-74
2023/07/01 03:09:07;;;;;;;;;;;;;;;16.63;100.00;100527.06;5091014;28;20160;-74
2023/07/01 03:11:32;;;;;;;;;;;;;;;16.68;100.00;100521.16;5060956;28;20374;-75
2023/07/01 03:13:57;;;;;;;;;;;;;;;16.53;100.00;100527.22;5059661;28;21024;-74
2023/07/01 03:16:23;;;;;;;;;;;;;;;16.28;100.00;100535.28;5076027;28;19931;-74
2023/07/01 03:18:48;;;;;;;;;;;;;;;16.14;100.00;100528.66;5056839;28;19966;-75
2023/07/01 03:21:13;;;;;;;;;;;;;;;16.15;100.00;100514.09;5076428;28;20014;-75
2023/07/01 03:23:38;;;;;;;;;;;;;;;16.14;100.00;100522.41;5059549;28;19924;-74
2023/07/01 03:26:03;;;;;;;;;;;;;;;16.17;100.00;100522.03;5060080;28;19930;-74
2023/07/01 03:28:29;;;;;;;;;;;;;;;16.20;100.00;100516.31;5075567;28;20051;-72
2023/07/01 03:30:54;;;;;;;;;;;;;;;16.08;100.00;100518.47;5058021;28;20417;-74
2023/07/01 03:33:19;;;;;;;;;;;;;;;16.13;100.00;100510.69;5077118;28;20377;-70
2023/07/01 03:35:45;;;;;;;;;;;;;;;16.09;100.00;100520.16;5059750;28;20345;-73
2023/07/01 03:38:10;;;;;;;;;;;;;;;16.07;100.00;100514.06;5075677;28;20413;-72
2023/07/01 03:40:35;;;;;;;;;;;;;;;16.08;100.00;100510.34;5077439;28;19920;-73
2023/07/01 03:43:00;;;;;;;;;;;;;;;16.10;100.00;100512.91;5077209;28;19959;-73
2023/07/01 03:45:26;;;;;;;;;;;;;;;16.06;100.00;100503.41;5076841;28;20338;-75
2023/07/01 03:47:51;;;;;;;;;;;;;;;16.09;100.00;100508.50;5076248;28;20001;-74
2023/07/01 03:50:16;;;;;;;;;;;;;;;16.11;100.00;100517.31;5065014;28;19927;-72
2023/07/01 03:52:42;;;;;;;;;;;;;;;16.18;100.00;100499.38;5096287;28;19920;-71
2023/07/01 03:55:08;;;;;;;;;;;;;;;16.00;100.00;100497.63;5060423;28;20285;-71
2023/07/01 03:57:34;;;;;;;;;;;;;;;15.95;100.00;100508.09;5070623;28;20393;-73
2023/07/01 03:59:59;;;;;;;;;;;;;;;15.92;100.00;100500.28;5058912;28;19919;-72
2023/07/01 04:02:24;;;;;;;;;;;;;;;15.94;100.00;100494.72;5056934;28;19946;-72
2023/07/01 04:04:49;;;;;;;;;;;;;;;15.93;100.00;100484.91;5098666;28;19928;-72
2023/07/01 04:07:15;;;;;;;;;;;;;;;15.95;100.00;100497.25;5079344;28;19990;-72
2023/07/01 04:09:41;;;;;;;;;;;;;;;15.81;100.00;100487.88;5077105;28;19946;-72
2023/07/01 04:12:07;;;;;;;;;;;;;;;15.73;100.00;100483.28;5102629;28;20373;-73
2023/07/01 04:14:32;;;;;;;;;;;;;;;15.67;100.00;100491.19;5098656;28;20010;-72
2023/07/01 04:16:57;;;;;;;;;;;;;;;15.59;100.00;100486.59;5080013;28;19950;-74
2023/07/01 04:19:23;;;;;;;;;;;;;;;15.39;100.00;100484.09;5079064;28;19923;-76
2023/07/01 04:21:48;;;;;;;;;;;;;;;15.35;100.00;100481.88;5080232;28;20473;-72
2023/07/01 04:24:13;;;;;;;;;;;;;;;15.24;100.00;100488.41;5060784;28;20294;-74
2023/07/01 04:26:38;;;;;;;;;;;;;;;15.22;100.00;100480.47;5077903;28;19920;-71
2023/07/01 04:29:04;;;;;;;;;;;;;;;15.15;100.00;100482.09;5073117;28;19993;-71
2023/07/01 04:31:29;;;;;;;;;;;;;;;15.06;100.00;100475.78;5079072;28;19924;-73
2023/07/01 04:33:55;;;;;;;;;;;;;;;15.02;100.00;100476.25;5098471;28;19920;-73
2023/07/01 04:36:20;;;;;;;;;;;;;;;14.93;100.00;100470.78;5080477;28;19928;-72
2023/07/01 04:38:45;;;;;;;;;;;;;;;14.92;100.00;100476.34;5098553;28;19927;-72
2023/07/01 04:41:10;;;;;;;;;;;;;;;14.93;100.00;100478.91;5098239;28;21013;-73
2023/07/01 04:43:36;;;;;;;;;;;;;;;14.94;100.00;100477.03;5080796;28;20334;-71
2023/07/01 04:46:01;;;;;;;;;;;;;;;14.93;100.00;100480.75;5099343;28;20018;-72
2023/07/01 04:48:26;;;;;;;;;;;;;;;14.95;100.00;100476.91;5079789;28;20446;-70
2023/07/01 04:50:51;;;;;;;;;;;;;;;14.95;100.00;100468.78;5079753;28;19923;-73
2023/07/01 04:53:17;;;;;;;;;;;;;;;14.91;100.00;100464.69;5080263;28;19920;-72
2023/07/01 04:55:42;;;;;;;;;;;;;;;14.85;100.00;100463.44;5062528;28;20113;-73
2023/07/01 04:58:07;;;;;;;;;;;;;;;14.92;100.00;100479.03;5080356;28;19919;-72
2023/07/01 05:00:32;;;;;;;;;;;;;;;14.91;100.00;100469.22;5100784;28;19991;-74
2023/07/01 05:02:58;;;;;;;;;;;;;;;14.83;100.00;100470.03;5079374;28;20002;-72
2023/07/01 05:05:23;;;;;;;;;;;;;;;14.84;100.00;100475.25;5079639;28;19958;-76
2023/07/01 05:07:48;;;;;;;;;;;;;;;14.93;100.00;100469.94;5076948;28;20014;-74
2023/07/01 05:10:13;;;;;;;;;;;;;;;14.86;100.00;100469.72;5096813;28;19931;-70
2023/07/01 05:12:39;;;;;;;;;;;;;;;14.86;100.00;100469.72;5097826;28;20332;-71
2023/07/01 05:15:04;;;;;;;;;;;;;;;14.91;100.00;100480.03;5098339;28;20416;-73
2023/07/01 05:17:29;;;;;;;;;;;;;;;14.90;100.00;100470.25;5095571;28;20404;-71
2023/07/01 05:19:55;;;;;;;;;;;;;;;14.89;100.00;100465.84;5096970;28;19924;-72
2023/07/01 05:22:20;;;;;;;;;;;;;;;14.82;100.00;100465.63;5098368;28;20117;-74
2023/07/01 05:24:45;;;;;;;;;;;;;;;14.89;100.00;100463.13;5079447;28;19976;-73
2023/07/01 05:27:10;;;;;;;;;;;;;;;14.92;100.00;100469.09;5097297;28;20330;-75
2023/07/01 05:29:36;;;;;;;;;;;;;;;14.95;100.00;100462.50;5074984;28;20340;-72
2023/07/01 05:32:02;;;;;;;;;;;;;;;15.02;100.00;100468.13;5079267;28;20429;-72
2023/07/01 05:34:28;;;;;;;;;;;;;;;14.98;100.00;100465.75;5079834;28;19946;-72
2023/07/01 05:36:54;;;;;;;;;;;;;;;15.05;100.00;100462.41;5097870;28;19920;-72
2023/07/01 05:39:19;;;;;;;;;;;;;;;15.08;100.00;100454.00;5077987;28;20406;-72
2023/07/01 05:41:45;;;;;;;;;;;;;;;15.11;100.00;100459.09;5076753;28;19990;-72
2023/07/01 05:44:10;;;;;;;;;;;;;;;15.09;100.00;100459.25;5078098;28;20586;-72
2023/07/01 05:46:36;;;;;;;;;;;;;;;15.09;100.00;100450.28;5099057;28;19931;-74
2023/07/01 05:49:01;;;;;;;;;;;;;;;15.14;100.00;100447.94;5078154;28;20329;-73
2023/07/01 05:51:26;;;;;;;;;;;;;;;15.18;100.00;100451.19;5078886;28;20358;-72
2023/07/01 05:53:51;;;;;;;;;;;;;;;15.13;100.00;100449.78;5097187;28;20403;-73
2023/07/01 05:56:16;;;;;;;;;;;;;;;15.19;100.00;100451.03;5078123;28;19977;-71
2023/07/01 05:58:42;;;;;;;;;;;;;;;15.17;100.00;100452.19;5096425;28;20014;-73
2023/07/01 06:01:07;;;;;;;;;;;;;;;15.17;100.00;100453.03;5094151;28;19956;-72
2023/07/01 06:03:32;;;;;;;;;;;;;;;15.13;100.00;100447.09;5061742;28;20054;-74
2023/07/01 06:05:58;;;;;;;;;;;;;;;15.17;100.00;100446.78;5096984;28;20368;-71
2023/07/01 06:08:23;;;;;;;;;;;;;;;15.24;100.00;100445.13;5076900;28;20353;-73
2023/07/01 06:10:48;;;;;;;;;;;;;;;15.26;100.00;100448.53;5073933;28;20386;-72
2023/07/01 06:13:13;;;;;;;;;;;;;;;15.29;100.00;100440.94;5084540;28;19935;-73
2023/07/01 06:15:39;;;;;;;;;;;;;;;15.30;100.00;100448.03;5058929;28;19974;-72
2023/07/01 06:18:04;;;;;;;;;;;;;;;15.34;100.00;100447.72;5078576;28;20389;-76
2023/07/01 06:20:29;;;;;;;;;;;;;;;15.35;100.00;100442.16;5077604;28;19938;-73
2023/07/01 06:22:54;;;;;;;;;;;;;;;15.36;100.00;100449.25;5097592;28;20403;-73
2023/07/01 06:25:19;;;;;;;;;;;;;;;15.35;100.00;100439.47;5061213;28;20000;-73
2023/07/01 06:27:45;;;;;;;;;;;;;;;15.33;100.00;100436.06;5092784;28;20080;-71
2023/07/01 06:30:10;;;;;;;;;;;;;;;15.43;100.00;100433.25;5099329;28;19923;-72
2023/07/01 06:32:35;;;;;;;;;;;;;;;15.40;100.00;100436.28;5093601;28;20010;-74
2023/07/01 06:35:00;;;;;;;;;;;;;;;15.45;100.00;100425.81;5072878;28;20320;-73
2023/07/01 06:37:26;;;;;;;;;;;;;;;15.51;100.00;100427.84;5068535;28;19924;-76
2023/07/01 06:39:51;;;;;;;;;;;;;;;15.49;100.00;100429.03;5067142;28;20082;-75
2023/07/01 06:42:16;;;;;;;;;;;;;;;15.60;100.00;100432.31;5071760;28;20372;-72
2023/07/01 06:44:41;;;;;;;;;;;;;;;15.60;100.00;100431.47;5087417;28;19967;-72
2023/07/01 06:47:08;;;;;;;;;;;;;;;15.66;100.00;100425.38;5058282;28;20282;-73
2023/07/01 06:49:33;;;;;;;;;;;;;;;15.70;100.00;100429.47;5089776;28;19924;-76
2023/07/01 06:51:58;;;;;;;;;;;;;;;15.75;100.00;100429.00;5071974;28;19920;-73
2023/07/01 06:54:23;;;;;;;;;;;;;;;15.68;100.00;100411.69;5070602;28;19924;-73
2023/07/01 06:56:48;;;;;;;;;;;;;;;15.81;100.00;100422.06;5073901;28;19953;-74
2023/07/01 06:59:14;;;;;;;;;;;;;;;15.83;100.00;100431.72;5088002;28;19967;-75
2023/07/01 07:01:39;;;;;;;;;;;;;;;15.81;100.00;100414.78;5068241;28;19927;-73
2023/07/01 07:04:04;;;;;;;;;;;;;;;15.86;100.00;100427.88;5071899;28;19938;-75
2023/07/01 07:06:30;;;;;;;;;;;;;;;15.86;100.00;100422.47;5073155;28;19993;-72
2023/07/01 07:08:55;;;;;;;;;;;;;;;15.77;100.00;100429.66;5071107;28;19973;-72
2023/07/01 07:11:20;;;;;;;;;;;;;;;15.73;100.00;100421.03;5074913;28;19923;-74
2023/07/01 07:13:45;;;;;;;;;;;;;;;15.75;100.00;100415.47;5066822;28;20055;-72
2023/07/01 07:16:10;;;;;;;;;;;;;;;15.72;100.00;100413.91;5089228;28;19924;-71
2023/07/01 07:18:36;;;;;;;;;;;;;;;15.76;100.00;100425.25;5068902;28;19971;-71
2023/07/01 07:21:01;;;;;;;;;;;;;;;15.78;100.00;100423.22;5073380;28;20051;-71
2023/07/01 07:23:26;;;;;;;;;;;;;;;15.80;100.00;100412.25;5065798;28;19977;-74
2023/07/01 07:25:51;;;;;;;;;;;;;;;15.89;100.00;100414.84;5071575;28;19928;-72
2023/07/01 07:28:16;;;;;;;;;;;;;;;15.89;100.00;100409.44;5087349;28;20333;-75
2023/07/01 07:30:42;;;;;;;;;;;;;;;15.79;100.00;100415.97;5089727;28;20258;-75
2023/07/01 07:33:07;;;;;;;;;;;;;;;15.86;100.00;100409.75;5073330;28;20277;-71
2023/07/01 07:35:32;;;;;;;;;;;;;;;15.91;100.00;100413.84;5091808;28;19977;-74
2023/07/01 07:37:58;;;;;;;;;;;;;;;15.89;100.00;100414.84;5076312;28;19924;-74
2023/07/01 07:40:23;;;;;;;;;;;;;;;15.81;100.00;100417.47;5068920;28;19923;-75
2023/07/01 07:42:52;;;;;;;;;;;;;;;15.83;100.00;100409.22;5079454;28;20193;-72
2023/07/01 07:45:19;;;;;;;;;;;;;;;15.86;100.00;100414.34;5089030;28;19920;-72
2023/07/01 07:47:44;;;;;;;;;;;;;;;15.86;100.00;100412.47;5068889;28;20611;-72
2023/07/01 07:50:09;;;;;;;;;;;;;;;15.89;100.00;100408.59;5091641;28;19928;-73
2023/07/01 07:52:34;;;;;;;;;;;;;;;15.78;100.00;100415.09;5072842;28;20287;-75
2023/07/01 07:55:00;;;;;;;;;;;;;;;15.79;100.00;100415.97;5096576;28;19924;-73
2023/07/01 07:57:25;;;;;;;;;;;;;;;15.81;100.00;100413.94;5071034;28;19927;-73
2023/07/01 07:59:51;;;;;;;;;;;;;;;15.92;100.00;100408.25;5090680;28;19988;-71
2023/07/01 08:02:17;;;;;;;;;;;;;;;15.89;100.00;100411.31;5071165;28;19932;-71
2023/07/01 08:04:42;;;;;;;;;;;;;;;15.82;100.00;100408.34;5070802;28;20020;-72
2023/07/01 08:07:10;;;;;;;;;;;;;;;15.74;100.00;100420.00;5077096;28;20006;-72
2023/07/01 08:09:35;;;;;;;;;;;;;;;15.74;100.00;100384.00;5074335;28;19959;-73
2023/07/01 08:12:01;;;;;;;;;;;;;;;15.81;100.00;100405.81;5075858;28;20034;-75
2023/07/01 08:14:26;;;;;;;;;;;;;;;15.81;100.00;100398.53;5075657;28;19955;-74
2023/07/01 08:16:55;;;;;;;;;;;;;;;15.84;100.00;100402.78;5090101;28;19923;-72
2023/07/01 08:19:20;;;;;;;;;;;;;;;15.79;100.00;100405.13;5090786;28;19989;-74
2023/07/01 08:21:45;;;;;;;;;;;;;;;15.86;100.00;100401.63;5071741;28;20357;-72
2023/07/01 08:24:10;;;;;;;;;;;;;;;15.92;100.00;100393.88;5075091;28;20702;-72
2023/07/01 08:26:36;;;;;;;;;;;;;;;15.94;100.00;100408.09;5057056;28;20400;-76
2023/07/01 08:29:01;;;;;;;;;;;;;;;15.89;100.00;100400.47;5085287;28;20399;-73
2023/07/01 08:31:26;;;;;;;;;;;;;;;15.96;100.00;100404.19;5072298;28;19935;-72
2023/07/01 08:33:51;;;;;;;;;;;;;;;15.94;100.00;100397.25;5074483;28;19912;-72
2023/07/01 08:36:17;;;;;;;;;;;;;;;16.03;100.00;100399.81;5088874;28;19945;-71
2023/07/01 08:38:42;;;;;;;;;;;;;;;15.99;100.00;100390.31;5100941;28;19926;-73
2023/07/01 08:41:07;;;;;;;;;;;;;;;16.04;100.00;100397.94;5089529;28;19920;-75
2023/07/01 08:43:33;;;;;;;;;;;;;;;15.99;100.00;100390.31;5070392;28;19967;-74
2023/07/01 08:46:01;;;;;;;;;;;;;;;15.91;100.00;100401.13;5049433;28;19959;-72
2023/07/01 08:48:26;;;;;;;;;;;;;;;15.98;100.00;100391.34;5053268;28;19923;-74
2023/07/01 08:51:02;;;;;;;;;;;;;;;16.00;100.00;100405.56;5057589;28;20381;-72
2023/07/01 08:53:27;;;;;;;;;;;;;;;16.00;100.00;100396.59;5073979;28;19947;-75
2023/07/01 08:55:54;;;;;;;;;;;;;;;16.09;100.00;100394.75;5073221;28;20389;-72
2023/07/01 08:58:19;;;;;;;;;;;;;;;16.14;100.00;100387.00;5090292;28;19924;-73
2023/07/01 09:00:44;;;;;;;;;;;;;;;16.12;100.00;100386.31;5072067;28;19924;-73
2023/07/01 09:03:11;;;;;;;;;;;;;;;16.21;100.00;100382.56;5057879;28;19932;-72
2023/07/01 09:05:37;;;;;;;;;;;;;;;16.21;100.00;100379.88;5066273;28;19930;-75
2023/07/01 09:08:02;;;;;;;;;;;;;;;16.31;100.00;100371.56;5072533;28;19923;-71
2023/07/01 09:10:27;;;;;;;;;;;;;;;16.23;100.00;100377.84;5042842;28;20011;-74
2023/07/01 09:12:52;;;;;;;;;;;;;;;16.31;100.00;100374.28;5090554;28;19924;-72
2023/07/01 09:15:17;;;;;;;;;;;;;;;16.41;100.00;100374.97;5066982;28;19930;-72
2023/07/01 09:17:43;;;;;;;;;;;;;;;16.45;100.00;100380.88;5067098;28;20032;-73
2023/07/01 09:20:09;;;;;;;;;;;;;;;16.49;100.00;100376.81;5077725;28;19928;-73
2023/07/01 09:22:35;;;;;;;;;;;;;;;16.26;100.00;100369.38;5062529;28;20694;-73
2023/07/01 09:25:00;;;;;;;;;;;;;;;16.44;100.00;100371.94;5076039;28;20006;-72
2023/07/01 09:27:38;;;;;;;;;;;;;;;16.52;100.00;100370.25;5096356;28;20127;-72
2023/07/01 09:30:05;;;;;;;;;;;;;;;16.69;100.00;100365.63;5073652;28;19919;-71
2023/07/01 09:32:34;;;;;;;;;;;;;;;16.70;100.00;100368.19;5062993;28;19927;-75
2023/07/01 09:34:59;;;;;;;;;;;;;;;16.66;100.00;100369.53;5073561;28;19920;-72
2023/07/01 09:37:25;;;;;;;;;;;;;;;16.73;100.00;100369.69;5089219;28;19970;-75
2023/07/01 09:39:50;;;;;;;;;;;;;;;16.60;100.00;100375.63;5057275;28;19962;-76
2023/07/01 09:42:18;;;;;;;;;;;;;;;16.70;100.00;100365.47;5071114;28;20389;-72
2023/07/01 09:44:51;;;;;;;;;;;;;;;16.72;100.00;100368.84;5071361;28;20350;-73
2023/07/01 09:47:26;;;;;;;;;;;;;;;16.62;100.00;100352.78;5072000;28;19936;-72
2023/07/01 09:49:53;;;;;;;;;;;;;;;16.68;100.00;100353.13;5071172;28;19928;-74
2023/07/01 09:52:29;;;;;;;;;;;;;;;16.75;100.00;100348.69;5055141;28;20294;-72
2023/07/01 09:54:54;;;;;;;;;;;;;;;16.76;100.00;100343.09;5087071;28;20285;-71
2023/07/01 09:57:19;;;;;;;;;;;;;;;16.92;100.00;100331.38;5067881;28;19924;-72
2023/07/01 09:59:45;;;;;;;;;;;;;;;17.03;100.00;100337.47;5066818;28;20301;-73
2023/07/01 10:02:10;;;;;;;;;;;;;;;17.04;100.00;100336.44;5066347;28;19924;-75
2023/07/01 10:04:35;;;;;;;;;;;;;;;17.16;100.00;100328.78;5063169;28;19967;-72
2023/07/01 10:07:00;;;;;;;;;;;;;;;17.10;100.00;100341.19;5063610;28;20011;-74
2023/07/01 10:09:27;;;;;;;;;;;;;;;17.11;100.00;100342.88;5086114;28;19916;-74
2023/07/01 10:11:52;;;;;;;;;;;;;;;17.19;100.00;100337.44;5067689;28;19923;-71
2023/07/01 10:14:18;;;;;;;;;;;;;;;17.23;100.00;100329.78;5064659;28;19916;-72
2023/07/01 10:16:44;;;;;;;;;;;;;;;17.26;100.00;100344.84;5082788;28;20012;-74
2023/07/01 10:19:28;;;;;;;;;;;;;;;17.21;100.00;100332.69;5065123;28;19916;-73
2023/07/01 10:22:13;;;;;;;;;;;;;;;17.24;100.00;100332.28;5084325;28;20022;-74
2023/07/01 10:24:39;;;;;;;;;;;;;;;17.15;100.00;100335.22;5087784;28;20018;-72
2023/07/01 10:27:04;;;;;;;;;;;;;;;17.07;100.00;100336.09;5086981;28;19930;-74
2023/07/01 10:29:29;;;;;;;;;;;;;;;16.96;100.00;100314.75;5087276;28;19961;-71
2023/07/01 10:32:11;;;;;;;;;;;;;;;17.21;100.00;100332.69;5087306;28;20425;-71
2023/07/01 10:35:01;;;;;;;;;;;;;;;17.19;100.00;100332.00;5084414;28;19939;-72
2023/07/01 10:37:26;;;;;;;;;;;;;;;17.20;100.00;100324.69;5083117;28;20390;-72
2023/07/01 10:39:55;;;;;;;;;;;;;;;17.36;100.00;100324.63;5084526;28;20022;-71
2023/07/01 10:42:24;;;;;;;;;;;;;;;17.53;100.00;100324.53;5087953;28;19960;-71
2023/07/01 10:44:50;;;;;;;;;;;;;;;17.51;100.00;100327.41;5091253;28;19928;-73
2023/07/01 10:47:15;;;;;;;;;;;;;;;17.57;100.00;100331.31;5088177;28;20412;-71
2023/07/01 10:49:59;;;;;;;;;;;;;;;17.68;100.00;100324.63;5086342;28;20402;-74
2023/07/01 10:52:24;;;;;;;;;;;;;;;17.67;100.00;100314.81;5090780;28;19970;-73
2023/07/01 10:54:49;;;;;;;;;;;;;;;17.76;100.00;100321.00;5082185;28;19968;-72
2023/07/01 10:57:16;;;;;;;;;;;;;;;17.89;100.00;100321.25;5086435;28;20196;-72
2023/07/01 10:59:41;;;;;;;;;;;;;;;17.83;100.00;100330.97;5070577;28;19928;-71
2023/07/01 11:02:07;;;;;;;;;;;;;;;17.93;100.00;100335.34;5051567;28;19931;-72
2023/07/01 11:05:02;;;;;;;;;;;;;;;18.04;100.00;100323.22;5066958;28;19931;-71
2023/07/01 11:07:27;;;;;;;;;;;;;;;18.13;100.00;100325.69;5090605;28;19923;-73
2023/07/01 11:09:53;;;;;;;;;;;;;;;18.27;100.00;100318.63;5063760;28;19927;-72
2023/07/01 11:12:18;;;;;;;;;;;;;;;18.51;100.00;100318.59;5069008;28;19920;-72
2023/07/01 11:14:43;;;;;;;;;;;;;;;18.67;100.00;100326.59;5064068;28;19969;-71
2023/07/01 11:17:08;;;;;;;;;;;;;;;18.89;100.00;100321.25;5059619;28;20221;-73
2023/07/01 11:19:34;;;;;;;;;;;;;;;19.17;100.00;100323.34;5074411;28;19916;-72
2023/07/01 11:22:00;;;;;;;;;;;;;;;19.21;100.00;100318.34;5086157;28;19939;-73
2023/07/01 11:24:25;;;;;;;;;;;;;;;19.13;100.00;100313.88;5053577;28;19927;-74
2023/07/01 11:26:50;;;;;;;;;;;;;;;19.15;100.00;100314.53;5067972;28;19935;-73
2023/07/01 11:29:16;;;;;;;;;;;;;;;19.00;100.00;100309.09;5088038;28;20200;-72
2023/07/01 11:31:42;;;;;;;;;;;;;;;19.03;100.00;100309.56;5091721;28;20064;-73
2023/07/01 11:34:07;;;;;;;;;;;;;;;19.18;100.00;100306.84;5052130;28;19928;-73
2023/07/01 11:36:35;;;;;;;;;;;;;;;19.15;100.00;100307.22;5067995;28;19928;-71
2023/07/01 11:39:10;;;;;;;;;;;;;;;19.21;100.00;100304.75;5100738;28;19959;-73
2023/07/01 11:41:36;;;;;;;;;;;;;;;19.18;100.00;100319.59;5107548;28;20621;-75
2023/07/01 11:44:02;;;;;;;;;;;;;;;19.18;100.00;100320.44;5100074;28;19928;-72
2023/07/01 11:46:32;;;;;;;;;;;;;;;19.28;100.00;100306.53;5097924;28;20085;-75
2023/07/01 11:48:57;;;;;;;;;;;;;;;19.52;100.00;100301.81;5057967;28;20018;-74
2023/07/01 11:51:37;;;;;;;;;;;;;;;19.75;100.00;100307.06;5096435;28;20130;-73
2023/07/01 11:54:03;;;;;;;;;;;;;;;19.95;100.00;100298.31;5079405;28;20312;-72
2023/07/01 11:56:28;;;;;;;;;;;;;;;20.24;100.00;100301.91;5091492;28;19924;-72
2023/07/01 11:58:53;;;;;;;;;;;;;;;20.39;100.00;100293.66;5076345;28;19920;-75
2023/07/01 12:01:23;;;;;;;;;;;;;;;20.32;100.00;100296.31;5073863;28;20428;-73
2023/07/01 12:03:48;;;;;;;;;;;;;;;20.52;100.00;100293.75;5078010;28;19924;-72
2023/07/01 12:06:20;;;;;;;;;;;;;;;20.55;100.00;100289.75;5065824;28;19959;-73
2023/07/01 12:09:07;;;;;;;;;;;;;;;20.81;100.00;100289.13;5066002;28;20445;-72
2023/07/01 12:11:42;;;;;;;;;;;;;;;20.72;100.00;100289.47;5077143;28;19923;-73
2023/07/01 12:14:21;;;;;;;;;;;;;;;20.42;100.00;100292.41;5070540;28;20930;-73
2023/07/01 12:16:49;;;;;;;;;;;;;;;20.45;100.00;100292.84;5072046;28;20015;-71
2023/07/01 12:19:14;;;;;;;;;;;;;;;20.25;100.00;100295.44;5060558;28;19916;-69
2023/07/01 12:21:40;;;;;;;;;;;;;;;19.83;100.00;100305.25;5063213;28;19967;-72
2023/07/01 12:24:15;;;;;;;;;;;;;;;19.34;100.00;100321.25;5070878;28;19931;-72